Time;durP1;ratioP1;P1;durP2;ratioP2;P2;SDS_P1;SDS_P2;PMS_P1;PMS_P2;Temp;Humidity;BMP_temperature;BMP_pressure;BME280_temperature;BME280_humidity;BME280_pressure;Samples;Min_cycle;Max_cycle;Signal;HPM_P1;HPM_P2
2022/08/08 00:01:54;;;;;;;1.50;1.30;;;;;;;18.20;37.32;101295.91;10482141;28;20199;-77
2022/08/08 00:07:36;;;;;;;1.30;1.20;;;;;;;17.69;38.68;101291.16;10452436;28;20227;-82
2022/08/08 00:13:48;;;;;;;1.70;1.60;;;;;;;17.40;39.23;101298.78;10400000;28;20200;-82
2022/08/08 00:19:15;;;;;;;3.42;1.48;;;;;;;17.56;38.94;101294.00;10412638;28;20605;-84
2022/08/08 00:24:54;;;;;;;3.25;1.70;;;;;;;17.45;39.34;101284.28;10399952;28;20244;-78
2022/08/08 00:30:17;;;;;;;2.43;1.30;;;;;;;17.65;38.77;101284.50;10406455;28;20230;-77
2022/08/08 00:35:50;;;;;;;2.50;1.73;;;;;;;17.78;38.22;101291.81;10422632;28;20230;-78
2022/08/08 00:41:30;;;;;;;3.25;1.55;;;;;;;17.35;39.29;101299.03;10426963;28;20233;-84
2022/08/08 00:47:33;;;;;;;6.72;1.50;;;;;;;17.55;39.88;101295.19;10409336;28;20322;-77
2022/08/08 00:52:59;;;;;;;2.57;1.80;;;;;;;17.76;39.94;101294.19;10434984;28;20204;-77
2022/08/08 00:58:41;;;;;;;5.63;1.77;;;;;;;17.33;40.95;101284.28;10419807;28;20657;-77
2022/08/08 01:04:09;;;;;;;3.70;1.98;;;;;;;17.40;40.76;101284.53;10439739;28;20662;-82
2022/08/08 01:10:10;;;;;;;3.03;2.03;;;;;;;17.01;41.26;101291.81;10435022;28;20662;-77
2022/08/08 01:16:04;;;;;;;7.53;2.15;;;;;;;17.26;40.35;101284.91;10423748;28;20249;-79
2022/08/08 01:22:04;;;;;;;3.10;2.07;;;;;;;16.85;41.09;101297.38;10380948;28;20470;-83
2022/08/08 01:27:43;;;;;;;2.50;2.00;;;;;;;16.63;41.61;101297.84;10379145;28;20274;-78
2022/08/08 01:33:33;;;;;;;2.20;2.00;;;;;;;16.65;41.79;101289.78;10444181;28;20235;-77
2022/08/08 01:39:14;;;;;;;2.50;2.30;;;;;;;16.77;41.92;101295.47;10475813;28;20187;-80
2022/08/08 01:44:58;;;;;;;3.00;2.15;;;;;;;17.01;41.60;101288.16;10462947;28;20195;-77
2022/08/08 01:50:45;;;;;;;2.97;2.00;;;;;;;16.66;42.42;101294.28;10398658;28;20254;-77
2022/08/08 01:56:26;;;;;;;2.33;1.93;;;;;;;16.61;42.65;101285.97;10398501;28;20490;-77
2022/08/08 02:02:13;;;;;;;2.63;2.43;;;;;;;16.44;43.04;101291.84;10395747;28;20196;-77
2022/08/08 02:07:54;;;;;;;4.10;3.13;;;;;;;16.32;43.24;101303.22;10389562;28;20228;-78
2022/08/08 02:13:42;;;;;;;2.50;2.30;;;;;;;16.58;42.43;101300.91;10468807;28;20222;-78
2022/08/08 02:19:18;;;;;;;3.87;2.40;;;;;;;16.52;43.26;101300.31;10469120;28;20229;-77
2022/08/08 02:24:50;;;;;;;2.87;2.60;;;;;;;16.12;44.39;101302.06;10479306;28;20192;-84
2022/08/08 02:30:19;;;;;;;5.47;2.67;;;;;;;16.33;43.59;101293.50;10427544;28;20207;-80
2022/08/08 02:35:59;;;;;;;3.33;2.57;;;;;;;16.21;43.59;101288.56;10448225;28;20221;-79
2022/08/08 02:42:03;;;;;;;3.50;3.08;;;;;;;16.18;43.93;101295.78;10460646;28;20246;-78
2022/08/08 02:47:54;;;;;;;4.17;3.77;;;;;;;16.20;44.00;101290.59;10417540;28;20659;-78
2022/08/08 02:53:38;;;;;;;6.27;2.80;;;;;;;16.13;44.31;101293.19;10463102;28;20234;-82
2022/08/08 02:59:31;;;;;;;4.80;3.10;;;;;;;16.25;44.29;101302.97;10439056;28;20196;-78
2022/08/08 03:04:56;;;;;;;4.28;2.72;;;;;;;16.61;43.11;101302.22;10444441;28;20335;-78
2022/08/08 03:10:57;;;;;;;4.40;3.10;;;;;;;16.05;44.86;101302.63;10400122;28;20228;-79
2022/08/08 03:16:32;;;;;;;5.05;2.90;;;;;;;16.06;44.19;101295.75;10411093;28;20199;-78
2022/08/08 03:21:54;;;;;;;4.25;3.00;;;;;;;16.09;43.88;101303.59;10458209;28;20500;-77
2022/08/08 03:27:20;;;;;;;4.32;2.80;;;;;;;16.01;44.26;101318.75;10426638;28;20212;-78
2022/08/08 03:38:28;;;;;;;2.93;2.63;;;;;;;15.63;44.60;101323.75;10442161;28;20226;-77
2022/08/08 03:43:55;;;;;;;5.73;3.10;;;;;;;14.94;46.37;101325.00;10444525;28;20200;-81
2022/08/08 03:49:20;;;;;;;3.63;2.67;;;;;;;15.26;45.88;101331.97;10418255;28;20255;-77
2022/08/08 03:54:44;;;;;;;5.87;3.13;;;;;;;15.55;44.90;101334.00;10427813;28;20231;-77
2022/08/08 04:00:11;;;;;;;4.43;3.87;;;;;;;15.62;45.10;101336.31;10409436;28;20219;-77
2022/08/08 04:05:39;;;;;;;3.87;3.10;;;;;;;15.47;45.26;101344.22;10398622;28;20251;-82
2022/08/08 04:11:03;;;;;;;5.00;3.33;;;;;;;15.41;45.58;101356.94;10415725;28;20282;-83
2022/08/08 04:16:27;;;;;;;4.57;4.03;;;;;;;15.43;45.42;101357.44;10420957;28;20261;-78
2022/08/08 04:21:49;;;;;;;5.60;4.33;;;;;;;15.01;46.37;101355.66;10429194;28;20702;-85
2022/08/08 04:27:14;;;;;;;4.00;3.40;;;;;;;15.46;45.43;101364.47;10442810;28;20251;-79
2022/08/08 04:32:37;;;;;;;5.60;3.53;;;;;;;15.47;45.55;101361.28;10428452;28;20235;-81
2022/08/08 04:38:04;;;;;;;4.10;3.50;;;;;;;15.43;45.72;101365.13;10431019;28;20224;-77
2022/08/08 04:43:29;;;;;;;6.27;3.93;;;;;;;15.52;45.78;101363.09;10440702;28;20231;-84
2022/08/08 04:48:54;;;;;;;5.23;4.73;;;;;;;15.37;46.13;101370.16;10430022;28;20294;-84
2022/08/08 04:54:17;;;;;;;6.23;4.40;;;;;;;15.22;46.53;101369.94;10429760;28;20208;-78
2022/08/08 04:59:39;;;;;;;7.13;4.70;;;;;;;15.37;46.26;101367.31;10408571;28;20227;-81
2022/08/08 05:05:02;;;;;;;7.55;4.68;;;;;;;15.49;46.32;101370.28;10421287;28;20552;-85
2022/08/08 05:10:28;;;;;;;9.23;5.00;;;;;;;15.68;46.04;101378.38;10417604;28;20400;-77
2022/08/08 05:15:51;;;;;;;8.35;5.20;;;;;;;15.48;46.64;101377.16;10418964;28;20993;-86
2022/08/08 05:21:14;;;;;;;14.63;6.53;;;;;;;15.46;46.67;101382.34;10430096;28;20195;-88
2022/08/08 05:26:38;;;;;;;12.27;6.00;;;;;;;15.46;47.30;101382.34;10418343;28;20551;-85
2022/08/08 05:32:01;;;;;;;7.50;5.30;;;;;;;15.72;47.00;101372.84;10435779;28;20231;-85
2022/08/08 05:37:26;;;;;;;14.37;5.70;;;;;;;15.27;47.93;101378.25;10402976;28;20226;-84
2022/08/08 05:42:51;;;;;;;9.47;5.97;;;;;;;15.92;45.73;101363.47;10423648;28;20293;-85
2022/08/08 05:48:15;;;;;;;10.03;6.17;;;;;;;16.21;45.71;101374.75;10398825;28;20260;-84
2022/08/08 05:53:39;;;;;;;8.80;6.03;;;;;;;16.65;43.54;101378.00;10416505;28;20200;-87
2022/08/08 05:59:04;;;;;;;10.10;6.20;;;;;;;16.54;44.53;101376.78;10417496;28;20600;-84
2022/08/08 06:04:28;;;;;;;9.57;6.13;;;;;;;16.66;43.81;101374.00;10414609;28;20269;-88
2022/08/08 06:09:50;;;;;;;7.18;5.78;;;;;;;16.88;43.18;101384.94;10421454;28;20300;-86
2022/08/08 06:15:13;;;;;;;13.23;7.03;;;;;;;16.56;44.60;101385.78;10415322;28;20234;-88
2022/08/08 06:20:35;;;;;;;12.15;7.60;;;;;;;16.69;44.96;101401.72;10441032;28;20211;-90
2022/08/08 06:26:04;;;;;;;9.87;8.53;;;;;;;15.79;44.96;101412.91;10404871;28;20628;-87
2022/08/08 06:31:29;;;;;;;14.97;9.43;;;;;;;15.37;46.59;101417.66;10419970;28;20203;-84
2022/08/08 06:36:55;;;;;;;16.73;11.00;;;;;;;14.88;48.06;101422.00;10425953;28;20458;-87
2022/08/08 06:42:18;;;;;;;12.57;9.13;;;;;;;15.32;46.80;101418.69;10389216;28;20195;-90
2022/08/08 06:47:40;;;;;;;17.88;8.90;;;;;;;15.90;45.89;101419.84;10415250;28;20502;-88
2022/08/08 06:53:09;;;;;;;12.97;9.33;;;;;;;16.09;46.08;101420.19;10432355;28;20227;-77
2022/08/08 06:58:32;;;;;;;14.53;8.67;;;;;;;15.86;45.82;101413.19;10419852;28;20863;-88
2022/08/08 07:04:04;;;;;;;11.73;6.07;;;;;;;16.45;44.11;101407.34;10422814;28;20253;-86
2022/08/08 07:10:03;;;;;;;9.48;7.82;;;;;;;16.52;44.06;101410.47;10427547;28;20242;-84
2022/08/08 07:15:37;;;;;;;11.00;7.10;;;;;;;16.63;43.67;101420.22;10422910;28;20418;-88
2022/08/08 07:21:05;;;;;;;8.52;7.35;;;;;;;16.27;44.34;101411.56;10409829;28;20250;-86
2022/08/08 07:26:33;;;;;;;9.68;6.10;;;;;;;16.88;42.70;101419.09;10429963;28;20255;-86
2022/08/08 07:31:57;;;;;;;9.38;7.15;;;;;;;16.89;43.62;101425.63;10422914;28;20199;-86
2022/08/08 07:37:23;;;;;;;10.57;8.02;;;;;;;16.90;41.87;101431.00;10420344;28;20196;-88
2022/08/08 07:42:47;;;;;;;11.20;7.20;;;;;;;17.36;41.72;101433.78;10419570;28;20749;-76
2022/08/08 07:48:10;;;;;;;10.93;7.15;;;;;;;17.46;41.16;101437.00;10466023;28;20243;-88
2022/08/08 07:53:39;;;;;;;10.30;6.72;;;;;;;17.66;41.29;101443.81;10457755;28;20211;-86
2022/08/08 07:59:02;;;;;;;10.40;7.07;;;;;;;17.63;41.68;101436.78;10424352;28;20199;-77
2022/08/08 08:04:32;;;;;;;10.02;6.88;;;;;;;17.49;42.95;101453.38;10409311;28;20295;-84
2022/08/08 08:09:56;;;;;;;12.32;7.65;;;;;;;17.51;42.83;101448.16;10423797;28;20305;-76
2022/08/08 08:15:24;;;;;;;12.40;7.70;;;;;;;17.49;42.71;101447.69;10425033;28;20533;-77
2022/08/08 08:20:46;;;;;;;10.23;7.80;;;;;;;17.88;42.11;101448.16;10447079;28;20220;-86
2022/08/08 08:26:10;;;;;;;11.45;7.60;;;;;;;18.31;40.94;101451.19;10439026;28;20200;-86
2022/08/08 08:31:33;;;;;;;8.68;7.13;;;;;;;18.79;40.77;101449.31;10433544;28;20237;-89
2022/08/08 08:36:55;;;;;;;8.82;7.50;;;;;;;18.19;41.65;101451.19;10431243;28;20619;-86
2022/08/08 08:42:19;;;;;;;13.43;7.60;;;;;;;18.88;40.49;101441.41;10442621;28;20258;-86
2022/08/08 08:47:47;;;;;;;10.13;7.93;;;;;;;19.00;39.17;101446.25;10442680;28;20249;-80
2022/08/08 08:53:12;;;;;;;10.45;7.22;;;;;;;18.87;39.16;101442.63;10452301;28;20184;-86
2022/08/08 08:58:44;;;;;;;9.00;6.47;;;;;;;18.91;38.88;101445.56;10451147;28;20196;-85
2022/08/08 09:04:20;;;;;;;6.72;6.13;;;;;;;19.35;38.90;101443.50;10429768;28;20496;-86
2022/08/08 09:09:49;;;;;;;8.07;6.25;;;;;;;19.63;38.11;101447.13;10438245;28;20241;-85
2022/08/08 09:15:15;;;;;;;6.18;5.55;;;;;;;18.57;39.02;101444.19;10450647;28;20203;-76
2022/08/08 09:20:38;;;;;;;8.27;4.40;;;;;;;19.42;37.62;101439.97;10441351;28;20630;-79
2022/08/08 09:26:27;;;;;;;5.15;3.92;;;;;;;19.85;36.55;101442.72;10424334;28;20254;-76
2022/08/08 09:31:53;;;;;;;4.90;3.75;;;;;;;20.83;34.86;101436.72;10416115;28;20201;-83
2022/08/08 09:37:27;;;;;;;5.22;3.95;;;;;;;21.16;33.43;101427.50;10429169;28;20200;-86
2022/08/08 09:43:08;;;;;;;4.78;2.90;;;;;;;21.32;33.01;101431.09;10441496;28;20542;-89
2022/08/08 09:48:33;;;;;;;5.85;3.72;;;;;;;20.16;34.51;101436.09;10465917;28;20363;-76
2022/08/08 09:54:01;;;;;;;5.15;3.42;;;;;;;21.02;33.45;101430.94;10421403;28;20565;-76
2022/08/08 09:59:28;;;;;;;4.57;2.80;;;;;;;21.63;32.82;101429.97;10416290;28;20195;-86
2022/08/08 10:04:50;;;;;;;7.05;3.53;;;;;;;21.35;33.35;101427.44;10429523;28;20196;-82
2022/08/08 10:10:13;;;;;;;8.30;2.92;;;;;;;21.95;30.83;101423.91;10438147;28;20560;-76
2022/08/08 10:15:36;;;;;;;4.85;2.97;;;;;;;21.76;31.67;101419.09;10437969;28;20253;-88
2022/08/08 10:21:09;;;;;;;5.45;3.00;;;;;;;21.93;30.93;101414.84;10427825;28;20204;-85
2022/08/08 10:26:46;;;;;;;4.47;3.30;;;;;;;22.16;30.92;101415.63;10464299;28;20654;-76
2022/08/08 10:37:51;;;;;;;6.38;3.05;;;;;;;22.67;29.46;101406.41;10467790;28;20685;-77
2022/08/08 10:43:13;;;;;;;4.43;2.47;;;;;;;22.38;30.23;101400.31;10463324;28;20473;-76
2022/08/08 10:48:35;;;;;;;5.20;3.22;;;;;;;22.44;30.27;101407.38;10458120;28;20211;-79
2022/08/08 10:53:57;;;;;;;4.35;2.88;;;;;;;22.01;29.48;101408.00;10442187;28;20274;-82
2022/08/08 10:59:21;;;;;;;4.65;2.20;;;;;;;22.44;29.82;101409.41;10457349;28;20248;-86
2022/08/08 11:04:44;;;;;;;5.85;3.05;;;;;;;22.36;29.58;101407.69;10447814;28;20219;-85
2022/08/08 11:10:12;;;;;;;5.30;2.70;;;;;;;22.33;29.38;101403.53;10453108;28;20238;-84
2022/08/08 11:15:34;;;;;;;4.70;2.38;;;;;;;23.04;28.02;101394.91;10444775;28;20236;-86
2022/08/08 11:20:58;;;;;;;4.63;3.00;;;;;;;22.27;27.95;101398.53;10433128;28;20612;-87
2022/08/08 11:26:21;;;;;;;4.72;2.60;;;;;;;23.02;27.73;101386.69;10475621;28;20595;-83
2022/08/08 11:31:47;;;;;;;3.88;1.85;;;;;;;23.27;27.23;101389.81;10459039;28;20624;-85
2022/08/08 11:37:09;;;;;;;4.65;1.80;;;;;;;23.18;26.76;101380.69;10461413;28;21379;-83
2022/08/08 11:42:33;;;;;;;2.33;1.92;;;;;;;23.07;28.46;101374.81;10463345;28;20195;-80
2022/08/08 11:47:56;;;;;;;2.47;1.95;;;;;;;23.36;27.95;101372.22;10450231;28;20215;-82
2022/08/08 11:53:20;;;;;;;3.38;1.63;;;;;;;24.12;26.88;101372.28;10421896;28;20269;-85
2022/08/08 11:58:42;;;;;;;4.10;2.13;;;;;;;24.71;25.86;101361.41;10464683;28;20261;-81
2022/08/08 12:04:07;;;;;;;2.53;2.05;;;;;;;23.61;26.13;101370.34;10448093;28;20252;-78
2022/08/08 12:09:29;;;;;;;3.45;2.60;;;;;;;23.54;27.11;101364.53;10431586;28;20243;-84
2022/08/08 12:15:02;;;;;;;4.88;2.08;;;;;;;22.60;27.75;101361.22;10460024;28;20220;-79
2022/08/08 12:20:24;;;;;;;5.07;1.75;;;;;;;24.60;25.38;101370.84;10427540;28;20257;-81
2022/08/08 12:25:46;;;;;;;2.60;1.77;;;;;;;24.60;25.85;101352.72;10472082;28;20229;-81
2022/08/08 12:31:09;;;;;;;2.35;1.77;;;;;;;25.07;25.74;101347.91;10464757;28;20219;-83
2022/08/08 12:36:42;;;;;;;2.67;2.00;;;;;;;24.56;25.55;101358.50;10477325;28;20229;-78
2022/08/08 12:42:04;;;;;;;2.78;2.15;;;;;;;23.36;26.32;101354.94;10453780;28;20249;-82
2022/08/08 12:47:26;;;;;;;2.35;1.65;;;;;;;24.10;26.46;101364.06;10448484;28;20207;-84
2022/08/08 12:52:53;;;;;;;4.00;1.70;;;;;;;24.54;25.75;101351.50;10426215;28;20211;-78
2022/08/08 12:58:15;;;;;;;2.63;2.42;;;;;;;24.19;25.94;101358.81;10424696;28;20226;-78
2022/08/08 13:03:46;;;;;;;3.58;2.40;;;;;;;22.98;27.62;101359.94;10443594;28;20196;-80
2022/08/08 13:09:08;;;;;;;3.10;1.92;;;;;;;24.27;26.50;101346.06;10443949;28;20220;-82
2022/08/08 13:14:36;;;;;;;8.65;2.20;;;;;;;24.80;25.54;101350.34;10440422;28;20204;-79
2022/08/08 13:19:58;;;;;;;3.50;1.80;;;;;;;24.83;24.64;101344.59;10454396;28;20195;-77
2022/08/08 13:25:21;;;;;;;3.55;2.00;;;;;;;24.86;24.74;101337.16;10446780;28;20291;-77
2022/08/08 13:30:43;;;;;;;3.72;2.50;;;;;;;24.30;25.29;101336.63;10440392;28;20204;-83
2022/08/08 13:36:06;;;;;;;3.47;2.00;;;;;;;24.64;25.07;101325.56;10411694;28;20242;-77
2022/08/08 13:41:28;;;;;;;4.95;2.35;;;;;;;24.51;26.17;101332.94;10466543;28;20253;-80
2022/08/08 13:46:58;;;;;;;2.22;2.03;;;;;;;24.33;26.40;101332.06;10440541;28;20216;-77
2022/08/08 13:52:22;;;;;;;5.38;2.22;;;;;;;25.66;24.81;101323.94;10436195;28;20204;-78
2022/08/08 13:57:44;;;;;;;4.25;2.10;;;;;;;24.76;26.30;101320.66;10454561;28;20245;-81
2022/08/08 14:03:06;;;;;;;2.17;1.70;;;;;;;24.96;25.59;101319.06;10463410;28;20592;-78
2022/08/08 14:08:28;;;;;;;2.38;1.90;;;;;;;25.26;25.48;101316.56;10464897;28;20301;-80
2022/08/08 14:13:50;;;;;;;1.65;1.45;;;;;;;24.18;26.68;101328.34;10430002;28;20200;-81
2022/08/08 14:19:13;;;;;;;3.50;2.00;;;;;;;24.77;26.49;101319.44;10439774;28;20262;-79
2022/08/08 14:24:36;;;;;;;2.60;2.40;;;;;;;24.34;27.18;101330.84;10416959;28;20204;-77
2022/08/08 14:30:00;;;;;;;5.15;2.42;;;;;;;23.85;26.80;101323.63;10428151;28;20235;-79
2022/08/08 14:35:26;;;;;;;1.83;1.67;;;;;;;24.98;26.05;101322.31;10450884;28;20280;-78
2022/08/08 14:40:49;;;;;;;5.60;2.20;;;;;;;24.29;25.84;101319.72;10434438;28;20199;-78
2022/08/08 14:46:15;;;;;;;2.08;1.73;;;;;;;24.32;25.95;101318.09;10465207;28;21537;-78
2022/08/08 14:51:39;;;;;;;3.25;1.98;;;;;;;23.88;27.01;101322.81;10449027;28;20309;-78
2022/08/08 14:57:01;;;;;;;2.92;2.15;;;;;;;24.23;26.41;101324.22;10438522;28;20195;-80
2022/08/08 15:02:24;;;;;;;2.65;2.15;;;;;;;24.05;27.22;101320.44;10459822;28;20196;-77
2022/08/08 15:07:46;;;;;;;6.00;1.88;;;;;;;24.22;26.65;101313.94;10450504;28;20265;-78
2022/08/08 15:13:12;;;;;;;4.75;2.25;;;;;;;24.15;26.33;101314.72;10435942;28;20199;-77
2022/08/08 15:18:35;;;;;;;2.30;2.10;;;;;;;25.01;25.58;101304.19;10446750;28;20187;-82
2022/08/08 15:23:57;;;;;;;4.40;2.10;;;;;;;24.78;25.54;101312.44;10442999;28;20596;-81
2022/08/08 15:29:20;;;;;;;2.70;1.80;;;;;;;23.89;26.29;101315.84;10438825;28;20293;-78
2022/08/08 15:34:42;;;;;;;2.25;1.70;;;;;;;24.11;26.41;101313.88;10450910;28;20619;-78
2022/08/08 15:40:06;;;;;;;2.78;2.30;;;;;;;24.53;25.90;101313.19;10447257;28;20215;-78
2022/08/08 15:45:29;;;;;;;8.02;2.30;;;;;;;24.33;26.19;101314.78;10414677;28;20239;-79
2022/08/08 15:51:00;;;;;;;3.95;1.85;;;;;;;24.62;26.09;101310.72;10435280;28;20307;-78
2022/08/08 15:56:24;;;;;;;5.10;1.70;;;;;;;24.57;25.94;101311.16;10430937;28;20208;-78
2022/08/08 16:01:46;;;;;;;5.70;3.75;;;;;;;24.48;25.88;101307.00;10437448;28;20218;-78
2022/08/08 16:07:09;;;;;;;3.83;1.98;;;;;;;24.42;25.88;101300.81;10447762;28;20243;-82
2022/08/08 16:12:32;;;;;;;2.83;1.90;;;;;;;24.31;26.59;101302.88;10420832;28;20300;-78
2022/08/08 16:17:54;;;;;;;3.47;1.70;;;;;;;25.42;25.10;101292.22;10433872;28;20227;-78
2022/08/08 16:23:17;;;;;;;3.13;1.55;;;;;;;25.81;24.37;101295.84;10411630;28;20227;-79
2022/08/08 16:28:40;;;;;;;2.42;1.80;;;;;;;25.70;24.59;101295.88;10433602;28;20242;-81
2022/08/08 16:34:04;;;;;;;4.30;1.80;;;;;;;24.81;25.72;101294.31;10439343;28;20261;-78
2022/08/08 16:39:26;;;;;;;4.25;2.10;;;;;;;23.90;26.50;101300.22;10443884;28;20497;-80
2022/08/08 16:44:49;;;;;;;4.53;1.95;;;;;;;24.11;26.78;101296.59;10445361;28;20280;-78
2022/08/08 16:50:14;;;;;;;2.90;1.50;;;;;;;24.24;26.09;101299.94;10453694;28;20243;-78
2022/08/08 16:55:36;;;;;;;4.05;2.70;;;;;;;23.69;27.66;101297.22;10439801;28;20201;-77
2022/08/08 17:00:58;;;;;;;3.40;1.75;;;;;;;23.61;27.67;101304.13;10451542;28;20238;-77
2022/08/08 17:06:20;;;;;;;5.55;2.08;;;;;;;23.15;27.85;101306.72;10453507;28;20299;-77
2022/08/08 17:11:44;;;;;;;4.65;1.90;;;;;;;23.46;27.73;101299.53;10424119;28;20277;-77
2022/08/08 17:17:07;;;;;;;4.20;1.80;;;;;;;23.53;28.07;101306.16;10431479;28;20257;-77
2022/08/08 17:22:29;;;;;;;3.55;1.58;;;;;;;23.77;27.75;101304.69;10445524;28;20215;-81
2022/08/08 17:27:51;;;;;;;3.08;1.73;;;;;;;23.78;27.81;101314.13;10458883;28;20585;-78
2022/08/08 17:33:13;;;;;;;3.58;2.00;;;;;;;23.34;28.44;101325.75;10448977;28;20199;-81
2022/08/08 17:38:35;;;;;;;5.43;1.77;;;;;;;23.25;28.73;101329.81;10427814;28;20209;-82
2022/08/08 17:44:00;;;;;;;3.70;2.05;;;;;;;23.25;28.88;101323.22;10460568;28;20223;-78
2022/08/08 17:49:25;;;;;;;3.60;1.42;;;;;;;23.36;28.33;101331.94;10436803;28;20612;-81
2022/08/08 17:54:47;;;;;;;3.65;1.65;;;;;;;22.98;29.02;101334.06;10449539;28;20216;-77
2022/08/08 18:00:09;;;;;;;4.43;1.70;;;;;;;22.57;29.72;101335.31;10441954;28;20480;-78
2022/08/08 18:05:32;;;;;;;4.70;2.03;;;;;;;22.73;29.33;101338.75;10455905;28;20200;-78
2022/08/08 18:10:54;;;;;;;6.07;2.05;;;;;;;22.95;29.48;101336.91;10437871;28;20275;-77
2022/08/08 18:16:16;;;;;;;4.03;1.70;;;;;;;22.77;29.25;101343.31;10442063;28;20230;-77
2022/08/08 18:21:39;;;;;;;5.68;2.13;;;;;;;22.52;30.08;101347.94;10427179;28;20192;-78
2022/08/08 18:27:01;;;;;;;4.60;2.10;;;;;;;22.67;30.12;101344.03;10453589;28;20219;-78
2022/08/08 18:32:23;;;;;;;3.67;1.80;;;;;;;22.79;29.82;101351.53;10456550;28;20861;-77
2022/08/08 18:37:45;;;;;;;4.05;2.00;;;;;;;22.42;30.60;101348.66;10453412;28;20219;-77
2022/08/08 18:43:07;;;;;;;10.20;6.28;;;;;;;22.44;30.79;101357.69;10462970;28;20249;-78
2022/08/08 18:48:30;;;;;;;2.65;2.25;;;;;;;22.37;30.53;101352.72;10459937;28;20564;-78
2022/08/08 18:53:52;;;;;;;4.28;2.15;;;;;;;22.49;30.59;101371.72;10450860;28;20200;-78
2022/08/08 18:59:14;;;;;;;3.40;2.08;;;;;;;22.24;31.13;101380.06;10464671;28;20587;-82
2022/08/08 19:04:37;;;;;;;2.30;1.88;;;;;;;21.96;31.39;101399.72;10451641;28;20191;-78
2022/08/08 19:10:00;;;;;;;3.13;2.20;;;;;;;21.98;31.91;101403.06;10447248;28;20282;-77
2022/08/08 19:15:22;;;;;;;4.38;1.52;;;;;;;22.22;31.51;101414.06;10441163;28;20254;-78
2022/08/08 19:20:44;;;;;;;3.25;1.77;;;;;;;21.91;32.18;101426.72;10464410;28;20188;-80
2022/08/08 19:26:06;;;;;;;3.17;1.98;;;;;;;21.79;32.44;101426.94;10439170;28;20223;-78
2022/08/08 19:31:28;;;;;;;12.63;7.13;;;;;;;21.74;32.41;101433.00;10458897;28;20223;-78
2022/08/08 19:36:50;;;;;;;12.52;7.22;;;;;;;21.76;32.71;101431.41;10460118;28;20231;-76
2022/08/08 19:42:13;;;;;;;4.63;2.42;;;;;;;21.85;32.39;101439.75;10450012;28;20196;-77
2022/08/08 19:47:35;;;;;;;7.40;2.03;;;;;;;21.90;32.40;101445.16;10449887;28;20246;-76
2022/08/08 19:52:57;;;;;;;3.47;2.00;;;;;;;21.26;34.11;101455.53;10448427;28;20227;-76
2022/08/08 19:58:20;;;;;;;3.97;1.98;;;;;;;21.50;33.57;101457.22;10457125;28;20241;-77
2022/08/08 20:03:42;;;;;;;4.45;2.00;;;;;;;21.30;34.25;101459.31;10438470;28;20261;-81
2022/08/08 20:09:04;;;;;;;5.85;1.90;;;;;;;21.06;34.85;101471.16;10450110;28;20223;-81
2022/08/08 20:14:26;;;;;;;3.83;2.30;;;;;;;20.71;35.16;101472.06;10438576;28;20204;-82
2022/08/08 20:19:48;;;;;;;4.22;2.15;;;;;;;21.15;34.19;101466.81;10457276;28;20196;-82
2022/08/08 20:25:11;;;;;;;6.43;2.00;;;;;;;20.90;34.43;101471.25;10451372;28;20735;-82
2022/08/08 20:30:33;;;;;;;4.05;1.85;;;;;;;20.85;35.04;101483.00;10450554;28;20239;-83
2022/08/08 20:35:56;;;;;;;5.82;2.05;;;;;;;20.77;35.20;101484.06;10445174;28;20551;-83
2022/08/08 20:41:18;;;;;;;13.85;1.90;;;;;;;20.77;35.02;101481.19;10442525;28;20188;-82
2022/08/08 20:46:40;;;;;;;2.88;1.85;;;;;;;20.30;35.90;101485.09;10430696;28;20205;-80
2022/08/08 20:52:02;;;;;;;2.97;2.20;;;;;;;20.22;35.86;101483.28;10459617;28;20630;-82
2022/08/08 20:57:24;;;;;;;7.15;2.13;;;;;;;20.53;35.13;101487.22;10453479;28;20221;-82
2022/08/08 21:02:46;;;;;;;3.95;2.00;;;;;;;20.35;35.48;101493.38;10442189;28;20257;-81
2022/08/08 21:08:09;;;;;;;6.93;2.70;;;;;;;20.10;36.33;101504.25;10457719;28;20244;-78
2022/08/08 21:13:31;;;;;;;3.60;2.30;;;;;;;20.21;36.01;101506.56;10472863;28;20246;-77
2022/08/08 21:18:56;;;;;;;5.25;2.00;;;;;;;19.73;37.02;101502.94;10460924;28;20212;-76
2022/08/08 21:24:18;;;;;;;2.95;1.88;;;;;;;20.04;36.60;101507.78;10441190;28;20195;-77
2022/08/08 21:29:41;;;;;;;3.72;1.90;;;;;;;19.87;36.61;101505.31;10459734;28;20533;-82
2022/08/08 21:35:03;;;;;;;2.78;1.95;;;;;;;20.00;36.07;101509.72;10454517;28;20200;-82
2022/08/08 21:40:26;;;;;;;3.80;1.70;;;;;;;19.84;36.74;101506.03;10450953;28;20470;-77
2022/08/08 21:45:48;;;;;;;5.90;1.98;;;;;;;19.72;37.34;101506.97;10464917;28;20199;-77
2022/08/08 21:51:10;;;;;;;4.47;1.50;;;;;;;19.74;37.31;101513.16;10461127;28;20243;-77
2022/08/08 21:56:32;;;;;;;3.33;2.20;;;;;;;19.61;37.50;101505.88;10443249;28;20249;-77
2022/08/08 22:01:55;;;;;;;5.28;1.60;;;;;;;20.25;36.37;101511.16;10440537;28;20227;-77
2022/08/08 22:07:17;;;;;;;3.90;1.42;;;;;;;20.44;35.97;101516.91;10458903;28;20293;-77
2022/08/08 22:12:39;;;;;;;1.55;1.40;;;;;;;20.43;36.02;101523.03;10458024;28;20227;-81
2022/08/08 22:18:01;;;;;;;3.70;1.45;;;;;;;20.41;36.19;101529.13;10451930;28;20243;-77
2022/08/08 22:23:23;;;;;;;4.78;1.42;;;;;;;20.21;36.55;101535.19;10440845;28;20219;-76
2022/08/08 22:28:46;;;;;;;2.97;1.33;;;;;;;20.31;36.42;101534.59;10444858;28;20248;-77
2022/08/08 22:34:08;;;;;;;2.85;1.40;;;;;;;19.87;37.10;101539.66;10437064;28;20620;-80
2022/08/08 22:39:30;;;;;;;3.47;1.42;;;;;;;20.42;36.32;101545.13;10452430;28;20253;-77
2022/08/08 22:44:53;;;;;;;2.58;1.35;;;;;;;19.99;37.40;101542.41;10458327;28;20245;-77
2022/08/08 22:50:15;;;;;;;3.50;1.35;;;;;;;19.67;38.14;101551.00;10452097;28;20200;-76
2022/08/08 22:55:37;;;;;;;5.03;1.27;;;;;;;19.93;37.77;101544.69;10466360;28;20192;-83
2022/08/08 23:01:04;;;;;;;3.40;1.38;;;;;;;20.07;37.73;101552.81;10464891;28;20215;-83
2022/08/08 23:06:26;;;;;;;3.08;1.50;;;;;;;19.85;38.07;101542.03;10451080;28;20279;-78
2022/08/08 23:11:48;;;;;;;9.15;1.60;;;;;;;19.66;38.40;101549.31;10468661;28;20281;-77
2022/08/08 23:17:10;;;;;;;5.50;1.50;;;;;;;19.62;38.75;101559.88;10470076;28;20227;-77
2022/08/08 23:22:32;;;;;;;2.47;1.08;;;;;;;19.46;38.66;101558.97;10426595;28;20195;-83
2022/08/08 23:27:54;;;;;;;4.28;1.10;;;;;;;19.79;38.37;101560.66;10447339;28;20571;-81
2022/08/08 23:33:16;;;;;;;2.60;1.23;;;;;;;19.21;39.89;101558.28;10443151;28;20224;-77
2022/08/08 23:38:38;;;;;;;3.22;1.35;;;;;;;18.96;40.34;101554.72;10450348;28;20187;-77
2022/08/08 23:44:01;;;;;;;2.22;1.13;;;;;;;19.25;39.89;101555.53;10436155;28;20736;-77
2022/08/08 23:49:23;;;;;;;5.57;1.63;;;;;;;19.35;39.96;101564.41;10464471;28;20257;-82
2022/08/08 23:54:46;;;;;;;3.40;1.42;;;;;;;19.27;39.69;101559.69;10474793;28;20627;-82
